Time;durP1;ratioP1;P1;durP2;ratioP2;P2;SDS_P1;SDS_P2;PMS_P1;PMS_P2;Temp;Humidity;BMP_temperature;BMP_pressure;BME280_temperature;BME280_humidity;BME280_pressure;Samples;Min_cycle;Max_cycle;Signal;HPM_P1;HPM_P2
2023/06/07 00:01:06;;;;;;;;;;;;;;;14.60;42.14;101817.31;7351864;19;19919;-54
2023/06/07 00:03:36;;;;;;;;;;;;;;;14.56;42.50;101818.28;7352287;19;20443;-56
2023/06/07 00:06:01;;;;;;;;;;;;;;;14.52;42.05;101816.63;7352415;19;19923;-56
2023/06/07 00:08:27;;;;;;;;;;;;;;;14.50;42.15;101818.41;7356898;19;19932;-53
2023/06/07 00:10:52;;;;;;;;;;;;;;;14.46;42.12;101806.19;7355993;19;19926;-56
2023/06/07 00:13:17;;;;;;;;;;;;;;;14.44;42.50;101805.34;7358997;19;19935;-57
2023/06/07 00:15:43;;;;;;;;;;;;;;;14.40;42.29;101811.59;7355255;19;19922;-56
2023/06/07 00:18:10;;;;;;;;;;;;;;;14.36;42.06;101816.03;7354625;19;19955;-54
2023/06/07 00:20:35;;;;;;;;;;;;;;;14.34;42.66;101806.44;7358628;19;19926;-56
2023/06/07 00:23:01;;;;;;;;;;;;;;;14.30;42.50;101810.06;7358691;19;20278;-56
2023/06/07 00:25:27;;;;;;;;;;;;;;;14.26;42.28;101810.09;7358864;19;19922;-56
2023/06/07 00:27:53;;;;;;;;;;;;;;;14.23;42.30;101804.91;7355196;19;20487;-55
2023/06/07 00:30:18;;;;;;;;;;;;;;;14.19;42.63;101803.25;7355025;19;19947;-56
2023/06/07 00:32:44;;;;;;;;;;;;;;;14.18;42.36;101801.50;7356007;19;19929;-55
2023/06/07 00:35:10;;;;;;;;;;;;;;;14.16;42.66;101807.69;7358741;19;19930;-56
2023/06/07 00:37:36;;;;;;;;;;;;;;;14.13;42.80;101803.34;7356286;19;19958;-55
2023/06/07 00:40:01;;;;;;;;;;;;;;;14.10;42.98;101798.19;7354826;19;20499;-55
2023/06/07 00:42:26;;;;;;;;;;;;;;;14.07;42.84;101795.59;7356207;19;19943;-56
2023/06/07 00:44:51;;;;;;;;;;;;;;;14.03;42.64;101797.41;7358060;19;19927;-56
2023/06/07 00:47:17;;;;;;;;;;;;;;;14.02;42.59;101795.69;7363860;19;19923;-55
2023/06/07 00:49:43;;;;;;;;;;;;;;;14.00;42.90;101797.50;7364073;19;19986;-56
2023/06/07 00:52:09;;;;;;;;;;;;;;;13.99;43.03;101792.28;7363728;19;19943;-54
2023/06/07 00:54:34;;;;;;;;;;;;;;;13.96;42.98;101794.94;7358599;19;20347;-55
2023/06/07 00:57:00;;;;;;;;;;;;;;;13.94;42.97;101791.50;7358231;19;20308;-56
2023/06/07 00:59:26;;;;;;;;;;;;;;;13.91;42.92;101791.53;7353463;19;19911;-55
2023/06/07 01:01:51;;;;;;;;;;;;;;;13.90;43.19;101785.44;7352925;19;19915;-55
2023/06/07 01:04:19;;;;;;;;;;;;;;;13.88;43.36;101794.22;7357795;19;20034;-55
2023/06/07 01:22:09;;;;;;;;;;;;;;;13.68;43.64;101784.94;7243136;19;2004364;-55
2023/06/07 01:24:39;;;;;;;;;;;;;;;13.66;43.35;101781.50;7354780;19;19985;-56
2023/06/07 01:27:07;;;;;;;;;;;;;;;13.64;43.80;101788.53;7352155;19;19919;-55
2023/06/07 01:29:33;;;;;;;;;;;;;;;13.61;43.50;101780.72;7353192;19;19934;-55
2023/06/07 01:32:00;;;;;;;;;;;;;;;13.59;43.94;101781.66;7357388;19;19927;-56
2023/06/07 01:34:25;;;;;;;;;;;;;;;13.56;43.83;101787.81;7354486;19;19985;-54
2023/06/07 01:36:53;;;;;;;;;;;;;;;13.53;43.89;101790.47;7355465;19;19975;-55
2023/06/07 01:39:19;;;;;;;;;;;;;;;13.51;43.59;101787.00;7350900;19;19964;-55
2023/06/07 01:41:46;;;;;;;;;;;;;;;13.48;43.38;101800.19;7350928;19;19923;-55
2023/06/07 01:44:12;;;;;;;;;;;;;;;13.44;43.59;101791.50;7355280;19;19950;-54
2023/06/07 01:46:38;;;;;;;;;;;;;;;13.40;43.71;101794.22;7348971;19;19934;-54
2023/06/07 01:49:03;;;;;;;;;;;;;;;13.37;43.81;101799.50;7352167;19;19933;-54
2023/06/07 01:51:28;;;;;;;;;;;;;;;13.34;43.80;101783.81;7355034;19;19953;-55
2023/06/07 01:53:54;;;;;;;;;;;;;;;13.30;43.94;101787.38;7354976;19;19938;-55
2023/06/07 01:56:19;;;;;;;;;;;;;;;13.28;43.77;101789.16;7353882;19;19919;-54
2023/06/07 01:58:57;;;;;;;;;;;;;;;13.23;44.01;101782.25;7353272;19;19922;-55
2023/06/07 02:01:29;;;;;;;;;;;;;;;13.20;43.89;101787.50;7357541;19;21622;-54
2023/06/07 02:03:55;;;;;;;;;;;;;;;13.18;43.93;101797.16;7357919;19;19919;-55
2023/06/07 02:06:25;;;;;;;;;;;;;;;13.15;44.03;101794.56;7356232;19;19914;-55
2023/06/07 02:08:53;;;;;;;;;;;;;;;13.12;43.86;101799.84;7357684;19;20021;-55
2023/06/07 02:11:19;;;;;;;;;;;;;;;13.11;44.08;101795.50;7356546;19;20410;-56
2023/06/07 02:13:45;;;;;;;;;;;;;;;13.10;44.36;101790.28;7353042;19;19930;-55
2023/06/07 02:16:11;;;;;;;;;;;;;;;13.08;44.24;101798.19;7358290;19;19918;-55
2023/06/07 02:18:42;;;;;;;;;;;;;;;13.09;44.27;101794.69;7356115;19;20502;-54
2023/06/07 02:21:09;;;;;;;;;;;;;;;13.07;44.39;101788.56;7356915;19;19919;-56
2023/06/07 02:23:34;;;;;;;;;;;;;;;13.05;44.48;101786.88;7353974;19;19931;-53
2023/06/07 02:25:59;;;;;;;;;;;;;;;13.05;44.22;101781.63;7355399;19;19915;-55
2023/06/07 02:28:24;;;;;;;;;;;;;;;13.02;44.44;101782.53;7353089;19;19925;-55
2023/06/07 02:30:51;;;;;;;;;;;;;;;13.01;44.10;101779.94;7355788;19;19922;-54
2023/06/07 02:33:21;;;;;;;;;;;;;;;12.99;44.37;101782.59;7355034;19;19926;-55
2023/06/07 02:35:46;;;;;;;;;;;;;;;12.98;44.56;101780.88;7356159;19;19934;-56
2023/06/07 02:38:11;;;;;;;;;;;;;;;12.98;44.14;101773.00;7354230;19;19943;-55
2023/06/07 02:40:37;;;;;;;;;;;;;;;12.97;44.69;101779.13;7354948;19;19918;-55
2023/06/07 02:43:02;;;;;;;;;;;;;;;12.98;44.49;101778.25;7356203;19;19921;-56
2023/06/07 02:45:27;;;;;;;;;;;;;;;12.68;44.55;101725.41;7354808;19;19918;-55
2023/06/07 02:47:53;;;;;;;;;;;;;;;13.01;44.68;101775.56;7355605;19;19923;-55
2023/06/07 02:50:18;;;;;;;;;;;;;;;13.04;44.49;101772.91;7355333;19;19999;-56
2023/06/07 02:52:44;;;;;;;;;;;;;;;13.07;44.64;101771.97;7353083;19;19934;-55
2023/06/07 02:55:09;;;;;;;;;;;;;;;13.06;44.78;101768.50;7355877;19;19931;-55
2023/06/07 02:57:35;;;;;;;;;;;;;;;13.08;44.98;101766.72;7350139;19;19982;-55
2023/06/07 03:00:01;;;;;;;;;;;;;;;13.09;44.65;101768.44;7350132;19;19923;-55
2023/06/07 03:02:27;;;;;;;;;;;;;;;13.09;44.48;101767.59;7354271;19;19925;-53
2023/06/07 03:04:52;;;;;;;;;;;;;;;13.09;44.47;101768.44;7330008;19;20025;-55
2023/06/07 03:07:20;;;;;;;;;;;;;;;13.09;44.84;101767.59;7349454;19;20707;-55
2023/06/07 03:09:47;;;;;;;;;;;;;;;13.09;44.95;101762.34;7350398;19;20002;-55
2023/06/07 03:12:12;;;;;;;;;;;;;;;13.09;44.61;101772.84;7355063;19;19930;-54
2023/06/07 03:14:38;;;;;;;;;;;;;;;13.09;45.08;101771.06;7354784;19;19922;-56
2023/06/07 03:17:04;;;;;;;;;;;;;;;13.09;44.65;101784.19;7352412;19;20777;-55
2023/06/07 03:19:29;;;;;;;;;;;;;;;13.08;44.88;101766.72;7356051;19;19994;-55
2023/06/07 03:21:55;;;;;;;;;;;;;;;13.09;45.06;101784.19;7356402;19;20331;-53
2023/06/07 03:24:21;;;;;;;;;;;;;;;13.09;45.06;101778.09;7356108;19;19915;-55
2023/06/07 03:26:46;;;;;;;;;;;;;;;13.09;45.09;101778.94;7360919;19;19914;-55
2023/06/07 03:29:11;;;;;;;;;;;;;;;13.09;45.30;101771.06;7362416;19;19911;-55
2023/06/07 03:31:37;;;;;;;;;;;;;;;13.08;45.08;101771.97;7361043;19;19978;-55
2023/06/07 03:34:02;;;;;;;;;;;;;;;13.08;45.22;101766.72;7361531;19;19915;-56
2023/06/07 03:36:29;;;;;;;;;;;;;;;13.07;45.30;101774.59;7361653;19;19922;-55
2023/06/07 03:38:57;;;;;;;;;;;;;;;13.05;45.40;101772.00;7353021;19;19919;-55
2023/06/07 03:41:23;;;;;;;;;;;;;;;13.05;45.05;101779.88;7362925;19;20633;-56
2023/06/07 03:43:48;;;;;;;;;;;;;;;13.04;45.09;101778.16;7358217;19;19922;-55
2023/06/07 03:46:13;;;;;;;;;;;;;;;13.03;45.30;101773.81;7359592;19;20530;-56
2023/06/07 03:48:39;;;;;;;;;;;;;;;13.01;45.01;101775.56;7356922;19;20024;-55
2023/06/07 03:51:05;;;;;;;;;;;;;;;12.99;45.06;101772.97;7361352;19;19939;-54
2023/06/07 03:53:30;;;;;;;;;;;;;;;12.99;45.51;101775.59;7360286;19;19921;-55
2023/06/07 03:55:56;;;;;;;;;;;;;;;13.01;45.12;101774.69;7359452;19;19930;-54
2023/06/07 03:58:21;;;;;;;;;;;;;;;13.01;45.04;101778.19;7355991;19;19926;-56
2023/06/07 04:00:49;;;;;;;;;;;;;;;13.04;45.39;101774.66;7362828;19;19938;-58
2023/06/07 04:03:14;;;;;;;;;;;;;;;13.05;45.33;101768.53;7359221;19;19927;-58
2023/06/07 04:05:40;;;;;;;;;;;;;;;13.07;45.16;101767.59;7363237;19;20011;-58
2023/06/07 04:08:06;;;;;;;;;;;;;;;13.09;45.23;101768.44;7360017;19;19926;-58
2023/06/07 04:10:32;;;;;;;;;;;;;;;13.10;45.61;101767.56;7363115;19;19918;-57
2023/06/07 04:12:57;;;;;;;;;;;;;;;13.10;45.39;101764.06;7360456;19;19911;-58
2023/06/07 04:15:22;;;;;;;;;;;;;;;13.10;45.37;101764.06;7360475;19;19918;-57
2023/06/07 04:17:47;;;;;;;;;;;;;;;13.07;45.57;101764.97;7357812;19;20682;-57
2023/06/07 04:20:14;;;;;;;;;;;;;;;13.05;45.48;101765.91;7361200;19;20299;-58
2023/06/07 04:22:41;;;;;;;;;;;;;;;13.03;45.64;101755.44;7360505;19;19939;-58
2023/06/07 04:25:06;;;;;;;;;;;;;;;13.00;45.25;101763.34;7360195;19;20266;-58
2023/06/07 04:27:32;;;;;;;;;;;;;;;12.98;45.68;101765.13;7361062;19;19923;-58
2023/06/07 04:30:01;;;;;;;;;;;;;;;12.95;45.35;101765.19;7355377;19;19922;-56
2023/06/07 04:32:27;;;;;;;;;;;;;;;12.94;45.47;101771.31;7359752;19;20490;-58
2023/06/07 04:34:53;;;;;;;;;;;;;;;12.90;45.68;101757.38;7359633;19;19938;-57
2023/06/07 04:37:19;;;;;;;;;;;;;;;12.88;45.62;101759.16;7356431;19;19930;-57
2023/06/07 04:39:48;;;;;;;;;;;;;;;12.87;45.20;101761.78;7358435;19;19931;-58
2023/06/07 04:42:16;;;;;;;;;;;;;;;12.85;45.18;101766.22;7361053;19;19960;-56
2023/06/07 04:44:42;;;;;;;;;;;;;;;12.82;45.36;101764.47;7359163;19;20501;-56
2023/06/07 04:47:08;;;;;;;;;;;;;;;12.81;45.36;101761.91;7360756;19;19937;-56
2023/06/07 04:49:33;;;;;;;;;;;;;;;12.81;45.26;101767.13;7358942;19;19918;-55
2023/06/07 04:52:01;;;;;;;;;;;;;;;12.80;45.88;101775.91;7350105;19;20392;-56
2023/06/07 04:54:28;;;;;;;;;;;;;;;12.79;45.44;101768.94;7358854;19;19929;-56
2023/06/07 04:56:53;;;;;;;;;;;;;;;12.79;45.51;101771.53;7361139;19;19947;-56
2023/06/07 04:59:18;;;;;;;;;;;;;;;12.78;45.32;101772.44;7355145;19;20854;-56
2023/06/07 05:01:44;;;;;;;;;;;;;;;12.79;45.52;101776.78;7357770;19;19946;-56
2023/06/07 05:04:09;;;;;;;;;;;;;;;12.79;45.54;101776.78;7359771;19;19911;-56
2023/06/07 05:06:37;;;;;;;;;;;;;;;12.80;45.81;101775.91;7359118;19;19944;-55
2023/06/07 05:09:06;;;;;;;;;;;;;;;12.81;45.60;101778.47;7359480;19;19915;-56
2023/06/07 05:11:31;;;;;;;;;;;;;;;12.83;45.06;101776.72;7356828;19;20279;-55
2023/06/07 05:13:57;;;;;;;;;;;;;;;12.86;45.37;101779.28;7358805;19;19966;-56
2023/06/07 05:16:24;;;;;;;;;;;;;;;12.87;45.72;101773.16;7355232;19;19922;-54
2023/06/07 05:18:49;;;;;;;;;;;;;;;12.90;45.00;101777.50;7360471;19;19990;-56
2023/06/07 05:21:15;;;;;;;;;;;;;;;12.92;45.59;101778.31;7357005;19;20355;-56
2023/06/07 05:23:41;;;;;;;;;;;;;;;12.94;45.54;101784.44;7355280;19;20340;-56
2023/06/07 05:26:06;;;;;;;;;;;;;;;12.97;45.80;101784.34;7355717;19;19914;-54
2023/06/07 05:28:31;;;;;;;;;;;;;;;12.97;45.86;101785.22;7361795;19;19994;-56
2023/06/07 05:30:56;;;;;;;;;;;;;;;13.00;45.97;101776.47;7358411;19;19975;-56
2023/06/07 05:33:22;;;;;;;;;;;;;;;13.03;45.53;101770.28;7358386;19;19923;-56
2023/06/07 05:35:47;;;;;;;;;;;;;;;13.06;45.39;101773.72;7359533;19;19922;-56
2023/06/07 05:38:13;;;;;;;;;;;;;;;12.51;45.81;101674.13;7357918;19;19923;-55
2023/06/07 05:40:38;;;;;;;;;;;;;;;13.15;46.10;101773.59;7359306;19;19926;-56
2023/06/07 05:43:04;;;;;;;;;;;;;;;13.20;45.68;101771.75;7359060;19;19922;-54
2023/06/07 05:45:29;;;;;;;;;;;;;;;13.27;45.55;101776.94;7358240;19;19982;-56
2023/06/07 05:47:55;;;;;;;;;;;;;;;13.32;45.40;101773.34;7359860;19;20003;-55
2023/06/07 05:50:20;;;;;;;;;;;;;;;13.38;45.86;101775.00;7354711;19;20965;-54
2023/06/07 05:52:46;;;;;;;;;;;;;;;13.44;45.33;101780.16;7357305;19;19982;-55
2023/06/07 05:55:11;;;;;;;;;;;;;;;13.49;46.05;101778.31;7357484;19;19933;-55
2023/06/07 05:57:37;;;;;;;;;;;;;;;13.57;46.05;101781.66;7356788;19;19930;-55
2023/06/07 06:00:11;;;;;;;;;;;;;;;13.62;46.05;101787.69;7354789;19;19934;-56
2023/06/07 06:02:37;;;;;;;;;;;;;;;13.68;46.12;101784.94;7361648;19;19940;-55
2023/06/07 06:05:03;;;;;;;;;;;;;;;13.75;45.73;101791.84;7363734;19;20009;-56
2023/06/07 06:07:29;;;;;;;;;;;;;;;13.81;45.78;101789.97;7356588;19;19907;-56
2023/06/07 06:09:54;;;;;;;;;;;;;;;13.86;46.33;101788.13;7360716;19;19915;-56
2023/06/07 06:12:19;;;;;;;;;;;;;;;13.89;44.77;101791.59;7357946;19;19919;-55
2023/06/07 06:14:45;;;;;;;;;;;;;;;13.95;45.33;101785.34;7357830;19;19922;-56
2023/06/07 06:17:10;;;;;;;;;;;;;;;13.99;46.30;101794.91;7357857;19;19915;-55
2023/06/07 06:19:35;;;;;;;;;;;;;;;14.03;45.96;101781.66;7356923;19;19914;-56
2023/06/07 06:22:00;;;;;;;;;;;;;;;14.07;45.70;101781.59;7359804;19;19911;-54
2023/06/07 06:24:26;;;;;;;;;;;;;;;14.12;46.01;101788.50;7359248;19;19911;-56
2023/06/07 06:26:51;;;;;;;;;;;;;;;14.15;46.27;101785.81;7359082;19;19943;-55
2023/06/07 06:29:17;;;;;;;;;;;;;;;13.95;46.02;101748.59;7358595;19;19926;-56
2023/06/07 06:31:43;;;;;;;;;;;;;;;14.22;46.57;101791.78;7362631;19;19922;-56
2023/06/07 06:34:09;;;;;;;;;;;;;;;14.27;45.93;101789.94;7359560;19;20355;-56
2023/06/07 06:36:34;;;;;;;;;;;;;;;14.32;46.01;101787.22;7357438;19;19927;-55
2023/06/07 06:38:59;;;;;;;;;;;;;;;14.35;46.11;101784.53;7359395;19;20661;-56
2023/06/07 06:41:25;;;;;;;;;;;;;;;14.39;46.37;101787.03;7363087;19;19918;-56
2023/06/07 06:43:50;;;;;;;;;;;;;;;14.42;46.38;101789.63;7358778;19;19955;-56
2023/06/07 06:46:16;;;;;;;;;;;;;;;14.46;46.46;101798.31;7362141;19;19927;-56
2023/06/07 06:48:41;;;;;;;;;;;;;;;14.50;46.32;101792.13;7358223;19;19921;-56
2023/06/07 06:51:06;;;;;;;;;;;;;;;14.54;46.15;101799.03;7361735;19;19919;-55
2023/06/07 06:53:31;;;;;;;;;;;;;;;14.58;46.51;101805.09;7358805;19;19926;-56
2023/06/07 06:55:57;;;;;;;;;;;;;;;14.61;46.35;101805.91;7356739;19;20599;-56
2023/06/07 06:58:23;;;;;;;;;;;;;;;14.66;46.26;101804.03;7325206;19;19926;-56
2023/06/07 07:00:48;;;;;;;;;;;;;;;14.73;46.73;101810.88;7365009;19;19939;-56
2023/06/07 07:03:13;;;;;;;;;;;;;;;14.79;45.81;101810.75;7366080;19;19950;-55
2023/06/07 07:05:38;;;;;;;;;;;;;;;14.88;46.37;101808.81;7365053;19;19926;-56
2023/06/07 07:08:04;;;;;;;;;;;;;;;14.96;46.12;101812.13;7364257;19;19918;-56
2023/06/07 07:10:29;;;;;;;;;;;;;;;15.02;46.31;101812.00;7364488;19;19914;-56
2023/06/07 07:12:54;;;;;;;;;;;;;;;15.11;46.78;101806.53;7368314;19;19911;-56
2023/06/07 07:15:20;;;;;;;;;;;;;;;15.19;45.91;101807.19;7366911;19;20590;-56
2023/06/07 07:17:48;;;;;;;;;;;;;;;15.27;46.66;101805.25;7363026;19;19962;-56
2023/06/07 07:20:14;;;;;;;;;;;;;;;15.36;46.54;101805.91;7368097;19;19950;-56
2023/06/07 07:22:40;;;;;;;;;;;;;;;15.44;46.62;101814.47;7369560;19;19923;-57
2023/06/07 07:25:05;;;;;;;;;;;;;;;15.53;46.54;101811.63;7365271;19;20666;-56
2023/06/07 07:27:31;;;;;;;;;;;;;;;15.62;46.28;101802.63;7365967;19;19930;-56
2023/06/07 07:29:57;;;;;;;;;;;;;;;15.70;46.45;101801.53;7369198;19;19998;-56
2023/06/07 07:32:22;;;;;;;;;;;;;;;15.78;46.97;101804.84;7363277;19;19926;-56
2023/06/07 07:34:47;;;;;;;;;;;;;;;15.87;46.37;101805.50;7365056;19;20485;-59
2023/06/07 07:37:12;;;;;;;;;;;;;;;15.94;46.14;101800.03;7351395;19;21004;-59
2023/06/07 07:39:38;;;;;;;;;;;;;;;16.00;45.75;101804.25;7366607;19;20542;-59
2023/06/07 07:42:05;;;;;;;;;;;;;;;16.07;45.41;101800.56;7366169;19;19934;-59
2023/06/07 07:44:30;;;;;;;;;;;;;;;16.15;45.62;101803.81;7343154;19;19914;-59
2023/06/07 07:46:56;;;;;;;;;;;;;;;16.20;45.88;101806.34;7364925;19;20365;-58
2023/06/07 07:49:21;;;;;;;;;;;;;;;16.26;45.75;101806.16;7360549;19;19926;-58
2023/06/07 07:51:46;;;;;;;;;;;;;;;16.32;46.26;101805.97;7365477;19;19923;-59
2023/06/07 07:54:12;;;;;;;;;;;;;;;16.39;45.99;101828.63;7363170;19;19938;-59
2023/06/07 07:56:38;;;;;;;;;;;;;;;16.45;45.79;101817.03;7362983;19;19923;-59
2023/06/07 07:59:03;;;;;;;;;;;;;;;16.50;45.43;101816.00;7360503;19;19926;-59
2023/06/07 08:01:28;;;;;;;;;;;;;;;16.54;46.20;101812.34;7366183;19;20466;-58
2023/06/07 08:03:54;;;;;;;;;;;;;;;16.61;45.47;101807.75;7368643;19;19926;-58
2023/06/07 08:06:20;;;;;;;;;;;;;;;16.66;45.88;101804.97;7362805;19;19918;-59
2023/06/07 08:08:46;;;;;;;;;;;;;;;16.72;45.38;101803.03;7369304;19;19918;-59
2023/06/07 08:11:11;;;;;;;;;;;;;;;16.77;44.76;101808.19;7367778;19;20678;-59
2023/06/07 08:13:37;;;;;;;;;;;;;;;16.79;45.23;101807.25;7370038;19;22351;-58
2023/06/07 08:16:02;;;;;;;;;;;;;;;16.83;45.13;101814.16;7367194;19;19923;-58
2023/06/07 08:18:27;;;;;;;;;;;;;;;16.85;45.43;101812.31;7367499;19;19959;-58
2023/06/07 08:20:52;;;;;;;;;;;;;;;16.91;45.25;101815.69;7366916;19;19964;-59
2023/06/07 08:23:18;;;;;;;;;;;;;;;16.95;45.33;101812.03;7366961;19;19922;-58
2023/06/07 08:25:43;;;;;;;;;;;;;;;16.98;45.64;101804.91;7367584;19;19944;-59
2023/06/07 08:28:08;;;;;;;;;;;;;;;17.03;45.51;101810.00;7364952;19;19947;-59
2023/06/07 08:30:34;;;;;;;;;;;;;;;17.06;45.20;101816.06;7365585;19;19923;-58
2023/06/07 08:32:59;;;;;;;;;;;;;;;17.09;45.21;101809.81;7359513;19;20009;-58
2023/06/07 08:35:25;;;;;;;;;;;;;;;17.11;45.52;101811.50;7365603;19;19923;-58
2023/06/07 08:37:50;;;;;;;;;;;;;;;17.15;44.79;101814.03;7364248;19;19919;-58
2023/06/07 08:40:19;;;;;;;;;;;;;;;17.17;45.10;101818.34;7367826;19;19937;-57
2023/06/07 08:42:44;;;;;;;;;;;;;;;17.21;44.74;101821.75;7366246;19;19930;-58
2023/06/07 08:45:10;;;;;;;;;;;;;;;17.23;44.68;101826.06;7357107;19;19922;-58
2023/06/07 08:47:36;;;;;;;;;;;;;;;17.24;44.68;101825.16;7365367;19;19925;-58
2023/06/07 08:50:02;;;;;;;;;;;;;;;17.27;44.79;101829.47;7368223;19;20406;-58
2023/06/07 08:52:30;;;;;;;;;;;;;;;17.29;44.62;101823.25;7362782;19;19926;-58
2023/06/07 08:55:00;;;;;;;;;;;;;;;17.31;44.18;101829.31;7367690;19;20288;-59
2023/06/07 08:57:26;;;;;;;;;;;;;;;17.33;44.55;101818.69;7361913;19;19947;-59
2023/06/07 08:59:51;;;;;;;;;;;;;;;17.34;44.04;101821.31;7366946;19;20002;-59
2023/06/07 09:02:17;;;;;;;;;;;;;;;17.34;44.24;101810.75;7364577;19;19947;-58
2023/06/07 09:04:43;;;;;;;;;;;;;;;17.36;44.33;101808.06;7367827;19;19939;-58
2023/06/07 09:07:11;;;;;;;;;;;;;;;17.35;44.78;101809.84;7366508;19;19922;-59
2023/06/07 09:09:39;;;;;;;;;;;;;;;17.36;44.46;101808.91;7366064;19;20331;-59
2023/06/07 09:12:04;;;;;;;;;;;;;;;17.38;44.79;101811.50;7366686;19;19915;-58
2023/06/07 09:14:30;;;;;;;;;;;;;;;17.42;44.61;101818.41;7364880;19;20380;-59
2023/06/07 09:16:56;;;;;;;;;;;;;;;17.46;43.55;101813.88;7367063;19;19945;-58
2023/06/07 09:19:40;;;;;;;;;;;;;;;17.49;44.59;101813.81;7365035;19;19930;-59
2023/06/07 09:22:06;;;;;;;;;;;;;;;17.52;44.07;101816.31;7366381;19;19927;-59
2023/06/07 09:24:32;;;;;;;;;;;;;;;17.53;44.20;101810.97;7363873;19;19938;-59
2023/06/07 09:26:59;;;;;;;;;;;;;;;17.55;43.92;101814.44;7362964;19;19926;-59
2023/06/07 09:29:27;;;;;;;;;;;;;;;17.57;44.38;101817.88;7365816;19;19942;-59
2023/06/07 09:31:52;;;;;;;;;;;;;;;17.61;44.17;101821.28;7367904;19;19923;-58
2023/06/07 09:34:20;;;;;;;;;;;;;;;17.65;44.37;101820.28;7364604;19;20390;-58
2023/06/07 09:36:51;;;;;;;;;;;;;;;17.71;43.84;101819.19;7366226;19;20043;-58
2023/06/07 09:39:23;;;;;;;;;;;;;;;17.74;43.82;101825.28;7364552;19;19922;-59
2023/06/07 09:41:52;;;;;;;;;;;;;;;17.79;44.11;101831.28;7367117;19;19925;-58
2023/06/07 09:44:21;;;;;;;;;;;;;;;17.82;43.90;101833.78;7363765;19;19926;-59
2023/06/07 09:46:47;;;;;;;;;;;;;;;17.86;44.16;101838.06;7364362;19;19919;-57
2023/06/07 09:49:12;;;;;;;;;;;;;;;17.91;44.07;101831.75;7363918;19;19944;-57
2023/06/07 09:51:38;;;;;;;;;;;;;;;17.95;44.26;101820.16;7361011;19;19918;-56
2023/06/07 09:54:05;;;;;;;;;;;;;;;18.02;43.89;101829.59;7362389;19;20615;-56
2023/06/07 09:56:31;;;;;;;;;;;;;;;18.06;43.70;101826.78;7362663;19;19918;-56
2023/06/07 09:59:09;;;;;;;;;;;;;;;18.13;43.76;101828.28;7364073;19;19921;-57
2023/06/07 10:01:37;;;;;;;;;;;;;;;18.22;43.98;101837.66;7360518;19;19986;-56
2023/06/07 10:04:03;;;;;;;;;;;;;;;18.27;43.63;101841.00;7362326;19;20546;-56
2023/06/07 10:06:35;;;;;;;;;;;;;;;18.32;43.71;101833.75;7362533;19;19990;-56
2023/06/07 10:09:02;;;;;;;;;;;;;;;18.36;43.29;101834.53;7360872;19;20739;-56
2023/06/07 10:11:29;;;;;;;;;;;;;;;18.39;43.82;101831.75;7360885;19;20294;-56
2023/06/07 10:13:55;;;;;;;;;;;;;;;18.42;43.57;101832.50;7362586;19;19918;-56
2023/06/07 10:16:21;;;;;;;;;;;;;;;18.47;43.51;101831.47;7361248;19;19926;-56
2023/06/07 10:18:48;;;;;;;;;;;;;;;18.53;43.41;101847.09;7362918;19;19979;-57
2023/06/07 10:21:18;;;;;;;;;;;;;;;18.57;43.64;101833.72;7361742;19;19923;-56
2023/06/07 10:23:48;;;;;;;;;;;;;;;18.63;43.53;101838.75;7361714;19;19962;-57
2023/06/07 10:26:25;;;;;;;;;;;;;;;18.67;43.37;101847.44;7360853;19;19919;-55
2023/06/07 10:28:52;;;;;;;;;;;;;;;18.74;43.49;101848.97;7363331;19;20273;-56
2023/06/07 10:31:18;;;;;;;;;;;;;;;18.80;43.58;101851.38;7359270;19;19929;-56
2023/06/07 10:33:44;;;;;;;;;;;;;;;18.87;43.24;101855.50;7364173;19;19978;-56
2023/06/07 10:36:09;;;;;;;;;;;;;;;18.95;43.46;101854.34;7366554;19;19978;-57
2023/06/07 10:38:35;;;;;;;;;;;;;;;19.02;43.18;101845.25;7370911;19;20336;-56
2023/06/07 10:41:02;;;;;;;;;;;;;;;19.11;43.48;101839.56;7358561;19;19919;-56
2023/06/07 10:43:28;;;;;;;;;;;;;;;19.19;43.02;101827.75;7365314;19;19915;-56
2023/06/07 10:46:12;;;;;;;;;;;;;;;19.27;43.16;101837.19;7363296;19;19923;-56
2023/06/07 10:48:39;;;;;;;;;;;;;;;19.34;42.67;101825.41;7368561;19;19915;-56
2023/06/07 10:51:05;;;;;;;;;;;;;;;19.39;42.91;101819.00;7366496;19;19955;-56
2023/06/07 10:53:48;;;;;;;;;;;;;;;19.48;43.03;101822.19;7368221;19;19919;-56
2023/06/07 10:56:33;;;;;;;;;;;;;;;19.59;43.20;101812.00;7365459;19;19922;-56
2023/06/07 10:59:14;;;;;;;;;;;;;;;19.72;42.97;101799.97;7365012;19;19923;-56
2023/06/07 11:01:39;;;;;;;;;;;;;;;19.89;43.03;101807.19;7369822;19;19931;-57
2023/06/07 11:04:04;;;;;;;;;;;;;;;20.03;42.93;101798.63;7367896;19;20662;-56
2023/06/07 11:06:32;;;;;;;;;;;;;;;20.17;42.80;101806.81;7364810;19;19919;-56
2023/06/07 11:09:33;;;;;;;;;;;;;;;20.34;43.02;101809.56;7369387;19;19971;-57
2023/06/07 11:11:58;;;;;;;;;;;;;;;20.55;42.79;101796.25;7259298;19;2004435;-56
2023/06/07 11:14:24;;;;;;;;;;;;;;;20.71;42.69;101799.91;7363842;19;19933;-57
2023/06/07 11:16:49;;;;;;;;;;;;;;;20.89;42.79;101790.22;7368771;19;20445;-56
2023/06/07 11:19:16;;;;;;;;;;;;;;;21.07;42.84;101793.75;7369670;19;19923;-56
2023/06/07 11:21:53;;;;;;;;;;;;;;;21.30;42.78;101800.59;7369310;19;19925;-56
2023/06/07 11:24:19;;;;;;;;;;;;;;;21.57;42.79;101793.03;7369303;19;19915;-57
2023/06/07 11:26:45;;;;;;;;;;;;;;;21.83;42.81;101792.53;7365285;19;21655;-57
2023/06/07 11:29:11;;;;;;;;;;;;;;;22.13;42.75;101791.91;7365875;19;19957;-57
2023/06/07 11:31:36;;;;;;;;;;;;;;;22.40;42.52;101785.06;7369254;19;19915;-57
2023/06/07 11:34:01;;;;;;;;;;;;;;;22.72;42.14;101795.75;7364612;19;20038;-57
2023/06/07 11:36:33;;;;;;;;;;;;;;;23.08;42.82;101792.81;7365283;19;19926;-57
2023/06/07 11:39:05;;;;;;;;;;;;;;;23.44;42.24;101789.78;7365673;19;19919;-57
2023/06/07 11:41:31;;;;;;;;;;;;;;;23.80;41.71;101791.22;7367850;19;19922;-57
2023/06/07 11:43:59;;;;;;;;;;;;;;;24.12;41.55;101785.72;7362274;19;22277;-57
2023/06/07 11:46:24;;;;;;;;;;;;;;;24.40;40.97;101780.38;7366645;19;19933;-57
2023/06/07 11:48:50;;;;;;;;;;;;;;;24.63;40.48;101778.91;7364212;19;19922;-57
2023/06/07 11:51:15;;;;;;;;;;;;;;;24.82;40.06;101776.75;7366878;19;19966;-56
2023/06/07 11:53:41;;;;;;;;;;;;;;;24.99;40.36;101781.00;7367763;19;19929;-56
2023/06/07 11:56:08;;;;;;;;;;;;;;;25.12;40.09;101782.88;7365404;19;19958;-56
2023/06/07 11:58:36;;;;;;;;;;;;;;;25.19;39.64;101784.16;7364696;19;19933;-57
2023/06/07 12:01:02;;;;;;;;;;;;;;;25.22;38.94;101783.97;7365974;19;19922;-57
2023/06/07 12:03:28;;;;;;;;;;;;;;;25.22;39.00;101770.59;7363387;19;19915;-57
2023/06/07 12:05:53;;;;;;;;;;;;;;;25.24;38.83;101774.03;7364857;19;19941;-57
2023/06/07 12:08:19;;;;;;;;;;;;;;;25.27;39.06;101771.16;7365402;19;20323;-57
2023/06/07 12:10:52;;;;;;;;;;;;;;;25.29;38.75;101769.22;7360555;19;19921;-57
2023/06/07 12:13:21;;;;;;;;;;;;;;;25.30;38.55;101765.59;7366347;19;20335;-57
2023/06/07 12:15:53;;;;;;;;;;;;;;;25.30;38.18;101770.97;7365278;19;20035;-57
2023/06/07 12:18:19;;;;;;;;;;;;;;;25.26;38.23;101772.13;7364642;19;19952;-57
2023/06/07 12:20:45;;;;;;;;;;;;;;;25.24;37.99;101771.34;7362831;19;20304;-57
2023/06/07 12:23:11;;;;;;;;;;;;;;;25.21;38.22;101766.22;7364820;19;19926;-57
2023/06/07 12:25:37;;;;;;;;;;;;;;;25.19;38.09;101768.13;7366012;19;20021;-57
2023/06/07 12:28:06;;;;;;;;;;;;;;;25.16;37.47;101779.91;7182242;19;3544004;-56
2023/06/07 12:30:37;;;;;;;;;;;;;;;25.12;37.34;101773.03;7366868;19;20252;-56
2023/06/07 12:33:03;;;;;;;;;;;;;;;25.07;37.26;101770.66;7364564;19;19932;-57
2023/06/07 12:35:38;;;;;;;;;;;;;;;25.01;37.50;101765.72;7368825;19;19943;-57
2023/06/07 12:38:06;;;;;;;;;;;;;;;24.97;37.85;101764.19;7364650;19;20709;-57
2023/06/07 12:40:32;;;;;;;;;;;;;;;24.94;37.58;101768.88;7364282;19;19939;-57
2023/06/07 12:42:57;;;;;;;;;;;;;;;24.89;37.39;101771.88;7366085;19;20639;-57
2023/06/07 12:45:23;;;;;;;;;;;;;;;24.84;37.59;101774.00;7364103;19;19915;-56
2023/06/07 12:47:48;;;;;;;;;;;;;;;24.82;37.46;101770.53;7366133;19;19925;-57